createdAt,value
2023-01-07T00:01:58.523Z,101301.47
2023-01-07T00:04:25.935Z,101297.00
2023-01-07T00:06:54.621Z,101303.38
2023-01-07T00:09:22.041Z,101303.38
2023-01-07T00:11:49.449Z,101298.94
2023-01-07T00:14:16.849Z,101297.09
2023-01-07T00:16:44.388Z,101289.13
2023-01-07T00:19:13.578Z,101288.28
2023-01-07T00:21:41.013Z,101286.56
2023-01-07T00:24:10.635Z,101296.38
2023-01-07T00:26:38.385Z,101289.13
2023-01-07T00:29:06.531Z,101285.88
2023-01-07T00:31:35.750Z,101282.25
2023-01-07T00:34:09.747Z,101290.22
2023-01-07T00:36:40.035Z,101292.91
2023-01-07T00:39:10.061Z,101286.09
2023-01-07T00:41:37.618Z,101285.50
2023-01-07T00:44:05.503Z,101288.53
2023-01-07T00:46:33.103Z,101293.25
2023-01-07T00:49:01.388Z,101294.72
2023-01-07T00:51:28.887Z,101292.28
2023-01-07T00:53:56.312Z,101292.28
2023-01-07T00:56:25.005Z,101295.78
2023-01-07T00:58:52.565Z,101292.16
2023-01-07T01:01:20.130Z,101298.31
2023-01-07T01:03:47.603Z,101296.78
2023-01-07T01:06:15.744Z,101294.84
2023-01-07T01:08:43.618Z,101290.56
2023-01-07T01:11:12.177Z,101286.97
2023-01-07T01:13:41.018Z,101298.44
2023-01-07T01:16:09.438Z,101292.16
2023-01-07T01:18:36.934Z,101284.31
2023-01-07T01:21:05.733Z,101282.59
2023-01-07T01:23:33.206Z,101289.63
2023-01-07T01:26:05.157Z,101295.66
2023-01-07T01:28:32.835Z,101302.81
2023-01-07T01:31:01.724Z,101302.81
2023-01-07T01:33:36.845Z,101299.28
2023-01-07T01:36:05.330Z,101303.78
2023-01-07T01:38:32.769Z,101309.94
2023-01-07T01:41:00.403Z,101298.56
2023-01-07T01:43:30.565Z,101295.19
2023-01-07T01:45:58.180Z,101295.06
2023-01-07T01:48:26.924Z,101292.41
2023-01-07T01:50:54.545Z,101289.75
2023-01-07T01:53:23.150Z,101283.59
2023-01-07T01:55:52.814Z,101278.25
2023-01-07T01:58:24.185Z,101277.16
2023-01-07T02:00:52.381Z,101268.56
2023-01-07T02:03:21.109Z,101268.69
2023-01-07T02:05:50.079Z,101273.19
2023-01-07T02:08:23.172Z,101272.94
2023-01-07T02:10:59.678Z,101272.94
2023-01-07T02:13:33.496Z,101271.00
2023-01-07T02:16:03.712Z,101276.31
2023-01-07T02:18:40.688Z,101267.63
2023-01-07T02:21:17.757Z,101271.22
2023-01-07T02:24:10.250Z,101258.03
2023-01-07T02:27:01.768Z,101263.25
2023-01-07T02:29:56.605Z,101260.47
2023-01-07T02:32:42.888Z,101257.81
2023-01-07T02:35:15.476Z,101266.03
2023-01-07T02:37:45.870Z,101264.84
2023-01-07T02:40:16.320Z,101265.66
2023-01-07T02:42:47.479Z,101247.28
2023-01-07T02:45:17.031Z,101239.41
2023-01-07T02:47:47.921Z,101252.59
2023-01-07T02:50:15.392Z,101239.53
2023-01-07T02:52:42.913Z,101240.13
2023-01-07T02:55:12.914Z,101240.13
2023-01-07T02:58:09.691Z,101237.47
2023-01-07T03:00:45.601Z,101230.47
2023-01-07T03:03:30.475Z,101232.16
2023-01-07T03:06:03.381Z,101233.84
2023-01-07T03:08:36.850Z,101235.88
2023-01-07T03:11:05.229Z,101238.53
2023-01-07T03:13:35.733Z,101237.84
2023-01-07T03:16:04.443Z,101237.00
2023-01-07T03:18:33.824Z,101232.50
2023-01-07T03:21:02.304Z,101228.84
2023-01-07T03:23:29.869Z,101237.84
2023-01-07T03:25:59.927Z,101240.38
2023-01-07T03:28:29.000Z,101238.53
2023-01-07T03:30:57.467Z,101243.88
2023-01-07T03:33:26.804Z,101242.03
2023-01-07T03:35:55.762Z,101238.66
2023-01-07T03:38:23.494Z,101240.25
2023-01-07T03:40:51.952Z,101239.50
2023-01-07T03:43:20.021Z,101242.16
2023-01-07T03:45:47.710Z,101242.03
2023-01-07T03:48:15.166Z,101235.06
2023-01-07T03:50:42.617Z,101242.31
2023-01-07T03:53:11.321Z,101237.84
2023-01-07T03:55:39.386Z,101237.84
2023-01-07T03:58:06.857Z,101234.19
2023-01-07T04:00:34.339Z,101230.56
2023-01-07T04:03:12.057Z,101226.94
2023-01-07T04:05:42.816Z,101221.03
2023-01-07T04:08:12.890Z,101228.63
2023-01-07T04:10:41.360Z,101221.03
2023-01-07T04:13:09.111Z,101213.63
2023-01-07T04:15:37.327Z,101211.22
2023-01-07T04:18:04.989Z,101210.22
2023-01-07T04:20:32.925Z,101203.09
2023-01-07T04:23:00.516Z,101199.84
2023-01-07T04:25:29.296Z,101196.84
2023-01-07T04:27:56.719Z,101195.13
2023-01-07T04:30:24.767Z,101200.69
2023-01-07T04:32:52.223Z,101191.88
2023-01-07T04:35:19.637Z,101191.88
2023-01-07T04:37:47.060Z,101170.69
2023-01-07T04:40:14.498Z,101175.31
2023-01-07T04:42:43.234Z,101178.81
2023-01-07T04:45:11.437Z,101185.13
2023-01-07T04:47:38.915Z,101185.25
2023-01-07T04:50:08.013Z,101196.47
2023-01-07T04:52:36.694Z,101178.81
2023-01-07T04:55:05.410Z,101181.59
2023-01-07T04:57:32.901Z,101175.69
2023-01-07T05:00:01.850Z,101171.94
2023-01-07T05:02:31.503Z,101171.81
2023-01-07T05:04:58.950Z,101174.59
2023-01-07T05:07:26.440Z,101178.09
2023-01-07T05:09:53.904Z,101174.59
2023-01-07T05:12:21.498Z,101172.06
2023-01-07T05:14:49.198Z,101175.44
2023-01-07T05:17:18.016Z,101170.00
2023-01-07T05:19:46.063Z,101173.72
2023-01-07T05:22:14.558Z,101165.03
2023-01-07T05:24:42.549Z,101184.38
2023-01-07T05:27:09.985Z,101180.75
2023-01-07T05:29:38.342Z,101172.06
2023-01-07T05:32:05.937Z,101169.41
2023-01-07T05:34:35.218Z,101169.41
2023-01-07T05:37:02.657Z,101172.91
2023-01-07T05:39:30.932Z,101170.34
2023-01-07T05:41:58.429Z,101166.97
2023-01-07T05:44:26.552Z,101163.34
2023-01-07T05:46:53.981Z,101165.16
2023-01-07T05:49:21.398Z,101167.81
2023-01-07T05:51:50.099Z,101166.03
2023-01-07T05:54:17.526Z,101173.25
2023-01-07T05:56:44.941Z,101175.91
2023-01-07T05:59:12.370Z,101175.06
2023-01-07T06:01:39.767Z,101174.97
2023-01-07T06:04:07.575Z,101170.59
2023-01-07T06:06:34.982Z,101167.94
2023-01-07T06:09:03.747Z,101175.91
2023-01-07T06:11:31.169Z,101163.59
2023-01-07T06:13:58.582Z,101164.31
2023-01-07T06:16:26.060Z,101159.13
2023-01-07T06:18:53.472Z,101164.44
2023-01-07T06:21:21.495Z,101168.91
2023-01-07T06:23:48.921Z,101171.69
2023-01-07T06:26:17.620Z,101182.09
2023-01-07T06:28:45.068Z,101174.25
2023-01-07T06:31:12.591Z,101189.38
2023-01-07T06:33:40.659Z,101175.19
2023-01-07T06:36:08.422Z,101188.63
2023-01-07T06:38:36.005Z,101184.88
2023-01-07T06:41:03.474Z,101189.50
2023-01-07T06:43:32.189Z,101187.66
2023-01-07T06:45:59.809Z,101188.50
2023-01-07T06:48:27.308Z,101187.91
2023-01-07T06:50:54.734Z,101193.00
2023-01-07T06:53:22.178Z,101185.00
2023-01-07T06:55:49.937Z,101192.03
2023-01-07T06:58:17.342Z,101185.97
2023-01-07T07:00:46.029Z,101186.94
2023-01-07T07:03:13.443Z,101188.50
2023-01-07T07:05:40.904Z,101177.84
2023-01-07T07:08:08.501Z,101176.19
2023-01-07T07:10:36.081Z,101174.59
2023-01-07T07:13:03.515Z,101171.00
2023-01-07T07:15:30.944Z,101178.09
2023-01-07T07:17:59.665Z,101180.28
2023-01-07T07:20:27.060Z,101175.03
2023-01-07T07:22:54.469Z,101187.25
2023-01-07T07:25:21.893Z,101185.56
2023-01-07T07:27:49.368Z,101184.47
2023-01-07T07:30:16.967Z,101194.25
2023-01-07T07:32:44.423Z,101190.50
2023-01-07T07:35:13.307Z,101199.09
2023-01-07T07:37:40.758Z,101192.81
2023-01-07T07:40:09.778Z,101191.00
2023-01-07T07:43:11.849Z,101188.69
2023-01-07T07:45:25.663Z,101192.56
2023-01-07T07:47:53.071Z,101196.06
2023-01-07T07:50:21.770Z,101193.28
2023-01-07T07:52:49.216Z,101191.59
2023-01-07T07:55:20.259Z,101188.81
2023-01-07T07:57:54.083Z,101197.66
2023-01-07T08:00:21.713Z,101202.88
2023-01-07T08:02:49.136Z,101199.34
2023-01-07T08:05:16.573Z,101204.78
2023-01-07T08:07:45.379Z,101200.19
2023-01-07T08:10:12.798Z,101192.34
2023-01-07T08:12:40.250Z,101201.41
2023-01-07T08:15:08.301Z,101196.66
2023-01-07T08:17:36.207Z,101198.38
2023-01-07T08:20:03.735Z,101195.72
2023-01-07T08:22:31.147Z,101190.16
2023-01-07T08:24:59.838Z,101189.16
2023-01-07T08:27:27.912Z,101189.16
2023-01-07T08:29:55.476Z,101183.72
2023-01-07T08:32:23.117Z,101176.56
2023-01-07T08:34:50.657Z,101181.88
2023-01-07T08:37:18.075Z,101184.53
2023-01-07T08:39:45.551Z,101185.28
2023-01-07T08:42:14.283Z,101183.59
2023-01-07T08:44:41.706Z,101185.28
2023-01-07T08:47:09.116Z,101180.69
2023-01-07T08:49:36.539Z,101184.06
2023-01-07T08:52:03.943Z,101178.75
2023-01-07T08:54:31.353Z,101171.03
2023-01-07T08:56:58.880Z,101165.50
2023-01-07T08:59:27.572Z,101158.56
2023-01-07T09:01:55.138Z,101167.84
2023-01-07T09:04:22.615Z,101167.38
2023-01-07T09:06:50.071Z,101172.44
2023-01-07T09:09:17.546Z,101171.31
2023-01-07T09:11:44.975Z,101176.91
2023-01-07T09:14:12.411Z,101176.19
2023-01-07T09:16:41.572Z,101177.03
2023-01-07T09:19:09.055Z,101176.44
2023-01-07T09:21:36.472Z,101175.34
2023-01-07T09:24:03.896Z,101176.44
2023-01-07T09:26:31.379Z,101173.78
2023-01-07T09:28:58.896Z,101172.94
2023-01-07T09:31:26.360Z,101172.94
2023-01-07T09:33:55.219Z,101175.59
2023-01-07T09:36:22.740Z,101173.78
2023-01-07T09:38:50.243Z,101172.22
2023-01-07T09:41:29.553Z,101167.59
2023-01-07T09:44:09.526Z,101167.59
2023-01-07T09:46:36.982Z,101172.94
2023-01-07T09:49:05.815Z,101166.78
2023-01-07T09:51:35.814Z,101168.31
2023-01-07T09:54:04.316Z,101165.66
2023-01-07T09:56:32.495Z,101172.69
2023-01-07T09:59:00.759Z,101166.66
2023-01-07T10:01:31.115Z,101161.16
2023-01-07T10:04:09.865Z,101162.28
2023-01-07T10:06:43.815Z,101159.38
2023-01-07T10:09:18.600Z,101155.84
2023-01-07T10:11:49.340Z,101152.47
2023-01-07T10:14:28.283Z,101149.56
2023-01-07T10:16:57.847Z,101146.78
2023-01-07T10:19:28.076Z,101148.72
2023-01-07T10:21:56.954Z,101147.63
2023-01-07T10:24:25.921Z,101140.75
2023-01-07T10:26:54.908Z,101146.06
2023-01-07T10:29:23.674Z,101140.63
2023-01-07T10:31:51.206Z,101137.38
2023-01-07T10:34:21.438Z,101130.94
2023-01-07T10:36:55.999Z,101127.78
2023-01-07T10:39:25.385Z,101121.88
2023-01-07T10:41:57.828Z,101112.59
2023-01-07T10:44:38.215Z,101115.63
2023-01-07T10:47:09.680Z,101115.06
2023-01-07T10:49:45.344Z,101107.44
2023-01-07T10:52:23.746Z,101106.47
2023-01-07T10:55:06.292Z,101107.63
2023-01-07T10:57:33.737Z,101100.59
2023-01-07T11:00:03.844Z,101104.38
2023-01-07T11:02:31.484Z,101107.50
2023-01-07T11:04:59.245Z,101099.66
2023-01-07T11:07:32.787Z,101097.81
2023-01-07T11:10:01.221Z,101093.31
2023-01-07T11:12:32.253Z,101085.50
2023-01-07T11:14:59.711Z,101086.47
2023-01-07T11:17:30.088Z,101073.59
2023-01-07T11:19:57.519Z,101070.81
2023-01-07T11:22:36.370Z,101068.72
2023-01-07T11:25:05.357Z,101061.00
2023-01-07T11:27:33.626Z,101054.97
2023-01-07T11:30:02.754Z,101060.28
2023-01-07T11:32:31.447Z,101047.81
2023-01-07T11:35:00.783Z,101047.41
2023-01-07T11:37:38.146Z,101046.97
2023-01-07T11:40:17.929Z,101054.00
2023-01-07T11:42:48.278Z,101055.66
2023-01-07T11:45:16.713Z,101048.66
2023-01-07T11:47:48.425Z,101057.63
2023-01-07T11:50:26.650Z,101052.53
2023-01-07T11:52:59.990Z,101050.59
2023-01-07T11:55:27.408Z,101042.16
2023-01-07T11:58:03.474Z,101043.84
2023-01-07T12:00:42.386Z,101042.88
2023-01-07T12:03:11.736Z,101039.31
2023-01-07T12:05:39.623Z,101028.50
2023-01-07T12:08:08.372Z,101032.88
2023-01-07T12:10:36.714Z,101022.25
2023-01-07T12:13:05.252Z,101025.53
2023-01-07T12:15:34.822Z,101023.94
2023-01-07T12:18:18.951Z,101023.34
2023-01-07T12:20:59.563Z,101019.63
2023-01-07T12:23:31.336Z,101021.28
2023-01-07T12:26:00.547Z,101009.69
2023-01-07T12:28:33.845Z,101013.56
2023-01-07T12:31:08.842Z,101011.16
2023-01-07T12:33:44.556Z,101011.63
2023-01-07T12:36:14.078Z,101010.19
2023-01-07T12:38:44.748Z,100998.13
2023-01-07T12:41:19.504Z,100999.56
2023-01-07T12:43:56.483Z,101003.41
2023-01-07T12:46:25.410Z,101002.22
2023-01-07T12:49:04.763Z,100984.34
2023-01-07T12:51:34.836Z,100991.34
2023-01-07T12:54:05.801Z,100980.63
2023-01-07T12:56:34.708Z,100983.22
2023-01-07T12:59:03.656Z,100982.63
2023-01-07T13:01:32.759Z,100975.53
2023-01-07T13:04:07.867Z,100980.22
2023-01-07T13:06:42.778Z,100973.81
2023-01-07T13:09:16.429Z,100971.03
2023-01-07T13:12:02.562Z,100963.44
2023-01-07T13:14:32.509Z,100963.31
2023-01-07T13:17:00.747Z,100966.72
2023-01-07T13:19:28.142Z,100958.25
2023-01-07T13:21:55.534Z,100950.66
2023-01-07T13:24:55.177Z,100951.59
2023-01-07T13:27:21.053Z,100945.56
2023-01-07T13:30:06.841Z,100944.97
2023-01-07T13:32:47.568Z,100937.75
2023-01-07T13:35:22.271Z,100937.25
2023-01-07T13:37:57.772Z,100930.84
2023-01-07T13:40:49.793Z,100925.78
2023-01-07T13:43:27.358Z,100938.34
2023-01-07T13:45:56.240Z,100923.97
2023-01-07T13:48:24.482Z,100928.44
2023-01-07T13:50:57.303Z,100931.31
2023-01-07T13:53:33.759Z,100927.09
2023-01-07T13:56:40.180Z,100923.25
2023-01-07T13:59:30.323Z,100920.59
2023-01-07T14:02:18.028Z,100910.94
2023-01-07T14:04:49.901Z,100909.97
2023-01-07T14:07:17.855Z,100907.81
2023-01-07T14:09:45.277Z,100908.78
2023-01-07T14:12:48.206Z,100911.31
2023-01-07T14:15:46.916Z,100902.50
2023-01-07T14:18:40.349Z,100903.81
2023-01-07T14:21:18.759Z,100894.63
2023-01-07T14:23:53.023Z,100900.31
2023-01-07T14:26:23.150Z,100901.88
2023-01-07T14:29:02.191Z,100892.94
2023-01-07T14:31:30.997Z,100900.91
2023-01-07T14:33:59.349Z,100889.56
2023-01-07T14:36:50.753Z,100893.69
2023-01-07T14:39:30.586Z,100892.84
2023-01-07T14:42:49.932Z,100888.00
2023-01-07T14:45:54.733Z,100895.00
2023-01-07T14:48:34.161Z,100889.94
2023-01-07T14:51:20.652Z,100889.00
2023-01-07T14:54:02.114Z,100894.88
2023-01-07T14:56:34.751Z,100893.81
2023-01-07T14:59:08.785Z,100885.13
2023-01-07T15:01:53.139Z,100883.41
2023-01-07T15:05:03.048Z,100883.03
2023-01-07T15:07:32.215Z,100888.00
2023-01-07T15:10:19.606Z,100881.97
2023-01-07T15:13:08.249Z,100879.56
2023-01-07T15:15:55.135Z,100888.25
2023-01-07T15:18:22.797Z,100879.34
2023-01-07T15:20:59.883Z,100881.50
2023-01-07T15:23:28.906Z,100887.03
2023-01-07T15:25:57.871Z,100882.22
2023-01-07T15:28:32.165Z,100886.31
2023-01-07T15:31:01.419Z,100875.22
2023-01-07T15:33:39.000Z,100880.53
2023-01-07T15:36:09.848Z,100884.75
2023-01-07T15:38:38.996Z,100878.84
2023-01-07T15:41:06.892Z,100877.41
2023-01-07T15:43:34.386Z,100876.78
2023-01-07T15:46:02.266Z,100869.91
2023-01-07T15:48:29.713Z,100871.16
2023-01-07T15:50:57.157Z,100871.97
2023-01-07T15:53:26.466Z,100871.97
2023-01-07T15:55:56.952Z,100870.53
2023-01-07T15:58:26.623Z,100868.72
2023-01-07T16:00:54.849Z,100872.34
2023-01-07T16:03:22.391Z,100867.53
2023-01-07T16:05:50.187Z,100859.28
2023-01-07T16:08:18.859Z,100860.03
2023-01-07T16:10:59.819Z,100861.81
2023-01-07T16:13:27.250Z,100864.84
2023-01-07T16:15:54.881Z,100865.31
2023-01-07T16:18:22.338Z,100860.69
2023-01-07T16:20:52.538Z,100859.59
2023-01-07T16:23:21.321Z,100858.31
2023-01-07T16:25:50.075Z,100858.56
2023-01-07T16:28:20.350Z,100854.19
2023-01-07T16:30:47.996Z,100846.03
2023-01-07T16:33:16.937Z,100850.69
2023-01-07T16:35:44.347Z,100843.09
2023-01-07T16:38:11.780Z,100844.09
2023-01-07T16:40:39.231Z,100844.53
2023-01-07T16:43:30.482Z,100836.56
2023-01-07T16:46:08.988Z,100836.13
2023-01-07T16:48:36.459Z,100833.03
2023-01-07T16:51:03.910Z,100831.81
2023-01-07T16:53:32.347Z,100827.00
2023-01-07T16:56:15.913Z,100828.66
2023-01-07T16:58:48.782Z,100826.63
2023-01-07T17:01:18.319Z,100828.66
2023-01-07T17:03:48.349Z,100818.53
2023-01-07T17:06:15.810Z,100816.59
2023-01-07T17:08:48.640Z,100820.38
2023-01-07T17:11:21.007Z,100809.50
2023-01-07T17:13:49.738Z,100815.53
2023-01-07T17:16:30.907Z,100806.72
2023-01-07T17:18:58.686Z,100806.38
2023-01-07T17:21:42.573Z,100801.88
2023-01-07T17:24:47.595Z,100802.00
2023-01-07T17:27:21.903Z,100796.59
2023-01-07T17:29:50.615Z,100791.28
2023-01-07T17:32:18.048Z,100789.50
2023-01-07T17:34:45.457Z,100787.19
2023-01-07T17:37:14.591Z,100779.81
2023-01-07T17:39:42.092Z,100782.84
2023-01-07T17:42:34.761Z,100779.47
2023-01-07T17:45:03.481Z,100772.09
2023-01-07T17:47:32.082Z,100777.66
2023-01-07T17:50:01.338Z,100767.75
2023-01-07T17:52:29.330Z,100775.84
2023-01-07T17:54:56.781Z,100771.13
2023-01-07T17:57:24.185Z,100775.47
2023-01-07T17:59:51.819Z,100765.00
2023-01-07T18:02:20.755Z,100772.22
2023-01-07T18:04:48.271Z,100766.81
2023-01-07T18:07:15.870Z,100771.41
2023-01-07T18:09:44.416Z,100761.25
2023-01-07T18:12:30.156Z,100755.84
2023-01-07T18:14:58.226Z,100755.13
2023-01-07T18:17:27.047Z,100756.06
2023-01-07T18:19:54.558Z,100755.84
2023-01-07T18:22:22.052Z,100751.88
2023-01-07T18:24:49.573Z,100753.66
2023-01-07T18:27:18.087Z,100757.03
2023-01-07T18:29:45.505Z,100747.66
2023-01-07T18:32:12.940Z,100749.09
2023-01-07T18:34:41.629Z,100743.44
2023-01-07T18:37:09.068Z,100735.94
2023-01-07T18:39:36.484Z,100741.09
2023-01-07T18:42:04.450Z,100730.97
2023-01-07T18:44:31.860Z,100741.13
2023-01-07T18:46:59.282Z,100730.28
2023-01-07T18:49:26.691Z,100731.56
2023-01-07T18:51:55.425Z,100732.78
2023-01-07T18:54:22.823Z,100737.00
2023-01-07T18:56:50.321Z,100727.53
2023-01-07T18:59:17.790Z,100715.53
2023-01-07T19:01:45.356Z,100712.75
2023-01-07T19:04:12.904Z,100714.75
2023-01-07T19:06:40.551Z,100707.84
2023-01-07T19:09:09.255Z,100706.78
2023-01-07T19:11:38.195Z,100702.03
2023-01-07T19:14:05.612Z,100709.75
2023-01-07T19:16:33.141Z,100698.03
2023-01-07T19:19:00.743Z,100703.81
2023-01-07T19:21:28.695Z,100702.47
2023-01-07T19:23:56.154Z,100701.63
2023-01-07T19:26:26.296Z,100693.41
2023-01-07T19:28:53.739Z,100692.03
2023-01-07T19:31:21.242Z,100681.28
2023-01-07T19:33:48.711Z,100678.50
2023-01-07T19:36:17.879Z,100681.03
2023-01-07T19:38:46.345Z,100673.81
2023-01-07T19:41:14.851Z,100675.81
2023-01-07T19:43:45.662Z,100673.03
2023-01-07T19:46:14.332Z,100668.81
2023-01-07T19:48:42.116Z,100663.38
2023-01-07T19:51:09.604Z,100660.22
2023-01-07T19:53:37.049Z,100644.28
2023-01-07T19:56:05.769Z,100652.16
2023-01-07T19:58:33.414Z,100650.50
2023-01-07T20:01:04.095Z,100645.31
2023-01-07T20:03:32.338Z,100648.28
2023-01-07T20:06:03.712Z,100646.47
2023-01-07T20:08:31.142Z,100653.31
2023-01-07T20:10:58.841Z,100651.38
2023-01-07T20:13:26.344Z,100647.59
2023-01-07T20:15:53.799Z,100637.09
2023-01-07T20:18:22.677Z,100644.13
2023-01-07T20:20:56.619Z,100626.78
2023-01-07T20:23:24.099Z,100628.88
2023-01-07T20:25:51.597Z,100629.31
2023-01-07T20:28:19.011Z,100631.00
2023-01-07T20:30:46.491Z,100614.63
2023-01-07T20:33:13.891Z,100626.97
2023-01-07T20:35:43.127Z,100634.09
2023-01-07T20:38:11.403Z,100627.81
2023-01-07T20:40:39.258Z,100618.16
2023-01-07T20:43:07.006Z,100618.72
2023-01-07T20:45:36.813Z,100612.88
2023-01-07T20:48:05.711Z,100613.72
2023-01-07T20:50:35.688Z,100623.50
2023-01-07T20:53:04.486Z,100613.72
2023-01-07T20:55:32.052Z,100609.09
2023-01-07T20:57:59.478Z,100601.84
2023-01-07T21:00:26.990Z,100597.34
2023-01-07T21:02:54.486Z,100595.25
2023-01-07T21:05:24.373Z,100579.31
2023-01-07T21:07:52.035Z,100579.03
2023-01-07T21:10:20.828Z,100573.72
2023-01-07T21:12:48.305Z,100578.50
2023-01-07T21:15:15.821Z,100581.72
2023-01-07T21:17:43.338Z,100570.78
2023-01-07T21:20:13.202Z,100571.50
2023-01-07T21:22:40.698Z,100560.72
2023-01-07T21:25:11.195Z,100562.84
2023-01-07T21:27:40.199Z,100553.03
2023-01-07T21:30:08.532Z,100553.03
2023-01-07T21:32:36.052Z,100545.06
2023-01-07T21:35:03.482Z,100546.75
2023-01-07T21:37:30.893Z,100544.78
2023-01-07T21:39:58.586Z,100537.78
2023-01-07T21:42:25.996Z,100532.22
2023-01-07T21:44:54.685Z,100547.03
2023-01-07T21:47:22.093Z,100534.59
2023-01-07T21:49:49.581Z,100532.78
2023-01-07T21:52:17.037Z,100531.81
2023-01-07T21:54:44.426Z,100534.16
2023-01-07T21:57:11.846Z,100532.06
2023-01-07T21:59:39.252Z,100541.59
2023-01-07T22:02:08.041Z,100533.47
2023-01-07T22:04:35.560Z,100533.34
2023-01-07T22:07:02.967Z,100529.72
2023-01-07T22:09:30.382Z,100515.28
2023-01-07T22:11:57.795Z,100522.56
2023-01-07T22:14:26.184Z,100518.91
2023-01-07T22:16:53.990Z,100517.81
2023-01-07T22:19:25.753Z,100527.31
2023-01-07T22:21:53.572Z,100514.16
2023-01-07T22:24:20.982Z,100513.19
2023-01-07T22:26:48.486Z,100519.47
2023-01-07T22:29:16.092Z,100504.38
2023-01-07T22:31:46.184Z,100507.59
2023-01-07T22:34:13.629Z,100516.13
2023-01-07T22:36:44.041Z,100505.06
2023-01-07T22:39:14.143Z,100498.59
2023-01-07T22:41:41.555Z,100492.88
2023-01-07T22:44:10.136Z,100495.66
2023-01-07T22:46:37.563Z,100481.53
2023-01-07T22:49:04.995Z,100480.53
2023-01-07T22:51:35.566Z,100481.94
2023-01-07T22:54:05.386Z,100487.25
2023-01-07T22:56:33.217Z,100485.28
2023-01-07T22:59:00.651Z,100482.22
2023-01-07T23:01:28.159Z,100478.28
2023-01-07T23:03:55.672Z,100481.94
2023-01-07T23:06:23.143Z,100465.69
2023-01-07T23:08:50.639Z,100479.84
2023-01-07T23:11:33.368Z,100470.28
2023-01-07T23:14:00.810Z,100462.03
2023-01-07T23:16:28.749Z,100475.47
2023-01-07T23:18:56.199Z,100484.00
2023-01-07T23:21:23.603Z,100473.22
2023-01-07T23:23:51.034Z,100471.44
2023-01-07T23:26:19.753Z,100463.00
2023-01-07T23:28:47.189Z,100460.78
2023-01-07T23:31:14.821Z,100456.44
2023-01-07T23:33:42.265Z,100453.63
2023-01-07T23:36:10.553Z,100450.81
2023-01-07T23:38:37.977Z,100449.69
2023-01-07T23:41:06.443Z,100449.00
2023-01-07T23:43:35.432Z,100444.22
2023-01-07T23:46:03.809Z,100437.38
2023-01-07T23:48:31.954Z,100431.06
2023-01-07T23:51:05.334Z,100423.94
2023-01-07T23:53:32.757Z,100424.63
2023-01-07T23:56:00.195Z,100422.78
2023-01-07T23:58:27.626Z,100424.75
